MetarQuiz.com

1 / 10

KSFO 101523Z 32009KT CAVOK 22/10 A3001 RMK AO2 SLP118 T02220100=